sensor_id;sensor_type;location;lat;lon;timestamp;temperature;humidity
26599;DHT22;14240;51.064;16.612;2023-12-28T00:00:49;5.00;99.90
26599;DHT22;14240;51.064;16.612;2023-12-28T00:03:15;5.20;99.90
26599;DHT22;14240;51.064;16.612;2023-12-28T00:05:41;5.30;99.90
26599;DHT22;14240;51.064;16.612;2023-12-28T00:08:07;5.40;99.90
26599;DHT22;14240;51.064;16.612;2023-12-28T00:10:32;5.40;99.90
26599;DHT22;14240;51.064;16.612;2023-12-28T00:12:58;5.50;99.90
26599;DHT22;14240;51.064;16.612;2023-12-28T00:15:24;5.60;99.90
26599;DHT22;14240;51.064;16.612;2023-12-28T00:17:49;5.60;99.90
26599;DHT22;14240;51.064;16.612;2023-12-28T00:20:15;5.70;99.90
26599;DHT22;14240;51.064;16.612;2023-12-28T00:22:41;5.70;99.90
26599;DHT22;14240;51.064;16.612;2023-12-28T00:25:07;5.80;99.90
26599;DHT22;14240;51.064;16.612;2023-12-28T00:27:33;5.80;99.90
26599;DHT22;14240;51.064;16.612;2023-12-28T00:30:04;5.90;99.90
26599;DHT22;14240;51.064;16.612;2023-12-28T00:32:30;5.90;99.90
26599;DHT22;14240;51.064;16.612;2023-12-28T00:34:56;6.00;99.90
26599;DHT22;14240;51.064;16.612;2023-12-28T00:37:22;6.00;99.90
26599;DHT22;14240;51.064;16.612;2023-12-28T00:39:48;6.10;99.90
26599;DHT22;14240;51.064;16.612;2023-12-28T00:42:15;6.10;99.90
26599;DHT22;14240;51.064;16.612;2023-12-28T00:44:41;6.20;99.90
26599;DHT22;14240;51.064;16.612;2023-12-28T00:47:07;6.20;99.90
26599;DHT22;14240;51.064;16.612;2023-12-28T00:49:33;6.30;99.90
26599;DHT22;14240;51.064;16.612;2023-12-28T00:51:58;6.40;99.90
26599;DHT22;14240;51.064;16.612;2023-12-28T00:54:24;6.40;99.90
26599;DHT22;14240;51.064;16.612;2023-12-28T00:56:50;6.50;99.90
26599;DHT22;14240;51.064;16.612;2023-12-28T00:59:15;6.50;99.90
26599;DHT22;14240;51.064;16.612;2023-12-28T01:01:41;6.50;99.90
26599;DHT22;14240;51.064;16.612;2023-12-28T01:04:07;6.60;99.90
26599;DHT22;14240;51.064;16.612;2023-12-28T01:06:33;6.60;99.90
26599;DHT22;14240;51.064;16.612;2023-12-28T01:08:58;6.60;99.90
26599;DHT22;14240;51.064;16.612;2023-12-28T01:11:24;6.70;99.90
26599;DHT22;14240;51.064;16.612;2023-12-28T01:13:51;6.70;99.90
26599;DHT22;14240;51.064;16.612;2023-12-28T01:16:17;6.70;99.90
26599;DHT22;14240;51.064;16.612;2023-12-28T01:18:43;6.70;99.90
26599;DHT22;14240;51.064;16.612;2023-12-28T01:21:09;6.70;99.90
26599;DHT22;14240;51.064;16.612;2023-12-28T01:23:35;6.70;99.90
26599;DHT22;14240;51.064;16.612;2023-12-28T01:26:00;6.80;99.90
26599;DHT22;14240;51.064;16.612;2023-12-28T01:28:27;6.80;99.90
26599;DHT22;14240;51.064;16.612;2023-12-28T01:30:52;6.90;99.90
26599;DHT22;14240;51.064;16.612;2023-12-28T01:33:18;7.00;99.90
26599;DHT22;14240;51.064;16.612;2023-12-28T01:35:44;7.00;99.90
26599;DHT22;14240;51.064;16.612;2023-12-28T01:38:10;7.00;99.90
26599;DHT22;14240;51.064;16.612;2023-12-28T01:40:35;7.00;99.90
26599;DHT22;14240;51.064;16.612;2023-12-28T01:43:01;7.00;99.90
26599;DHT22;14240;51.064;16.612;2023-12-28T01:45:27;7.00;99.90
26599;DHT22;14240;51.064;16.612;2023-12-28T01:47:53;7.00;99.90
26599;DHT22;14240;51.064;16.612;2023-12-28T01:50:23;7.00;99.90
26599;DHT22;14240;51.064;16.612;2023-12-28T01:52:50;7.00;99.90
26599;DHT22;14240;51.064;16.612;2023-12-28T01:55:17;7.00;99.90
26599;DHT22;14240;51.064;16.612;2023-12-28T01:57:43;7.00;99.90
26599;DHT22;14240;51.064;16.612;2023-12-28T02:00:10;7.10;99.90
26599;DHT22;14240;51.064;16.612;2023-12-28T02:02:36;7.10;99.90
26599;DHT22;14240;51.064;16.612;2023-12-28T02:05:02;7.10;99.90
26599;DHT22;14240;51.064;16.612;2023-12-28T02:07:29;7.10;99.90
26599;DHT22;14240;51.064;16.612;2023-12-28T02:09:55;7.20;99.90
26599;DHT22;14240;51.064;16.612;2023-12-28T02:12:21;7.20;99.90
26599;DHT22;14240;51.064;16.612;2023-12-28T02:14:46;7.20;99.90
26599;DHT22;14240;51.064;16.612;2023-12-28T02:17:33;7.20;99.90
26599;DHT22;14240;51.064;16.612;2023-12-28T02:20:02;7.20;99.90
26599;DHT22;14240;51.064;16.612;2023-12-28T02:22:31;7.20;99.90
26599;DHT22;14240;51.064;16.612;2023-12-28T02:25:10;7.30;99.90
26599;DHT22;14240;51.064;16.612;2023-12-28T02:27:42;7.30;99.90
26599;DHT22;14240;51.064;16.612;2023-12-28T02:30:12;7.30;99.90
26599;DHT22;14240;51.064;16.612;2023-12-28T02:33:07;7.30;99.90
26599;DHT22;14240;51.064;16.612;2023-12-28T02:35:36;7.40;99.90
26599;DHT22;14240;51.064;16.612;2023-12-28T02:38:05;7.40;99.90
26599;DHT22;14240;51.064;16.612;2023-12-28T02:40:36;7.40;99.90
26599;DHT22;14240;51.064;16.612;2023-12-28T02:43:05;7.40;99.90
26599;DHT22;14240;51.064;16.612;2023-12-28T02:45:31;7.40;99.90
26599;DHT22;14240;51.064;16.612;2023-12-28T02:47:56;7.40;99.90
26599;DHT22;14240;51.064;16.612;2023-12-28T02:50:22;7.40;99.90
26599;DHT22;14240;51.064;16.612;2023-12-28T02:52:48;7.40;99.90
26599;DHT22;14240;51.064;16.612;2023-12-28T02:55:13;7.40;99.90
26599;DHT22;14240;51.064;16.612;2023-12-28T02:57:40;7.40;99.90
26599;DHT22;14240;51.064;16.612;2023-12-28T03:00:06;7.50;99.90
26599;DHT22;14240;51.064;16.612;2023-12-28T03:02:34;7.40;99.90
26599;DHT22;14240;51.064;16.612;2023-12-28T03:05:00;7.40;99.90
26599;DHT22;14240;51.064;16.612;2023-12-28T03:07:26;7.40;99.90
26599;DHT22;14240;51.064;16.612;2023-12-28T03:09:52;7.40;99.90
26599;DHT22;14240;51.064;16.612;2023-12-28T03:12:17;7.40;99.90
26599;DHT22;14240;51.064;16.612;2023-12-28T03:14:43;7.40;99.90
26599;DHT22;14240;51.064;16.612;2023-12-28T03:17:09;7.40;99.90
26599;DHT22;14240;51.064;16.612;2023-12-28T03:19:37;7.40;99.90
26599;DHT22;14240;51.064;16.612;2023-12-28T03:22:03;7.30;99.90
26599;DHT22;14240;51.064;16.612;2023-12-28T03:24:29;7.40;99.90
26599;DHT22;14240;51.064;16.612;2023-12-28T03:26:54;7.40;99.90
26599;DHT22;14240;51.064;16.612;2023-12-28T03:29:20;7.50;99.90
26599;DHT22;14240;51.064;16.612;2023-12-28T03:31:46;7.50;99.90
26599;DHT22;14240;51.064;16.612;2023-12-28T03:34:11;7.60;99.90
26599;DHT22;14240;51.064;16.612;2023-12-28T03:36:37;7.60;99.90
26599;DHT22;14240;51.064;16.612;2023-12-28T03:39:03;7.70;99.90
26599;DHT22;14240;51.064;16.612;2023-12-28T03:41:32;7.70;99.90
26599;DHT22;14240;51.064;16.612;2023-12-28T03:43:57;7.70;99.90
26599;DHT22;14240;51.064;16.612;2023-12-28T03:46:23;7.70;99.90
26599;DHT22;14240;51.064;16.612;2023-12-28T03:48:49;7.70;99.90
26599;DHT22;14240;51.064;16.612;2023-12-28T03:51:15;7.70;99.90
26599;DHT22;14240;51.064;16.612;2023-12-28T03:53:42;7.80;99.90
26599;DHT22;14240;51.064;16.612;2023-12-28T03:56:08;7.80;99.90
26599;DHT22;14240;51.064;16.612;2023-12-28T03:58:33;7.80;99.90
26599;DHT22;14240;51.064;16.612;2023-12-28T04:00:59;7.80;99.90
26599;DHT22;14240;51.064;16.612;2023-12-28T04:03:25;7.80;99.90
26599;DHT22;14240;51.064;16.612;2023-12-28T04:05:51;7.90;99.90
26599;DHT22;14240;51.064;16.612;2023-12-28T04:08:16;7.90;99.90
26599;DHT22;14240;51.064;16.612;2023-12-28T04:10:42;7.90;99.90
26599;DHT22;14240;51.064;16.612;2023-12-28T04:13:08;7.90;99.90
26599;DHT22;14240;51.064;16.612;2023-12-28T04:15:34;8.00;99.90
26599;DHT22;14240;51.064;16.612;2023-12-28T04:17:59;8.00;99.90
26599;DHT22;14240;51.064;16.612;2023-12-28T04:20:25;8.00;99.90
26599;DHT22;14240;51.064;16.612;2023-12-28T04:22:51;8.00;99.90
26599;DHT22;14240;51.064;16.612;2023-12-28T04:25:17;8.10;99.90
26599;DHT22;14240;51.064;16.612;2023-12-28T04:27:43;8.10;99.90
26599;DHT22;14240;51.064;16.612;2023-12-28T04:30:12;8.10;99.90
26599;DHT22;14240;51.064;16.612;2023-12-28T04:32:38;8.10;99.90
26599;DHT22;14240;51.064;16.612;2023-12-28T04:35:04;8.20;99.90
26599;DHT22;14240;51.064;16.612;2023-12-28T04:37:30;8.20;99.90
26599;DHT22;14240;51.064;16.612;2023-12-28T04:39:56;8.20;99.90
26599;DHT22;14240;51.064;16.612;2023-12-28T04:42:22;8.30;99.90
26599;DHT22;14240;51.064;16.612;2023-12-28T04:44:48;8.30;99.90
26599;DHT22;14240;51.064;16.612;2023-12-28T04:47:14;8.30;99.90
26599;DHT22;14240;51.064;16.612;2023-12-28T04:49:39;8.30;99.90
26599;DHT22;14240;51.064;16.612;2023-12-28T04:52:05;8.40;99.90
26599;DHT22;14240;51.064;16.612;2023-12-28T04:54:31;8.40;99.90
26599;DHT22;14240;51.064;16.612;2023-12-28T04:56:58;8.40;99.90
26599;DHT22;14240;51.064;16.612;2023-12-28T04:59:25;8.40;99.90
26599;DHT22;14240;51.064;16.612;2023-12-28T05:01:51;8.40;99.90
26599;DHT22;14240;51.064;16.612;2023-12-28T05:04:16;8.40;99.90
26599;DHT22;14240;51.064;16.612;2023-12-28T05:06:42;8.30;99.90
26599;DHT22;14240;51.064;16.612;2023-12-28T05:09:08;8.30;99.90
26599;DHT22;14240;51.064;16.612;2023-12-28T05:11:34;8.30;99.90
26599;DHT22;14240;51.064;16.612;2023-12-28T05:13:59;8.30;99.90
26599;DHT22;14240;51.064;16.612;2023-12-28T05:16:25;8.30;99.90
26599;DHT22;14240;51.064;16.612;2023-12-28T05:18:51;8.30;99.90
26599;DHT22;14240;51.064;16.612;2023-12-28T05:21:17;8.20;99.90
26599;DHT22;14240;51.064;16.612;2023-12-28T05:23:42;8.20;99.90
26599;DHT22;14240;51.064;16.612;2023-12-28T05:26:08;8.20;99.90
26599;DHT22;14240;51.064;16.612;2023-12-28T05:28:34;8.20;99.90
26599;DHT22;14240;51.064;16.612;2023-12-28T05:30:59;8.10;99.90
26599;DHT22;14240;51.064;16.612;2023-12-28T05:33:25;8.10;99.90
26599;DHT22;14240;51.064;16.612;2023-12-28T05:35:51;7.70;99.90
26599;DHT22;14240;51.064;16.612;2023-12-28T05:38:17;8.10;99.90
26599;DHT22;14240;51.064;16.612;2023-12-28T05:40:44;8.00;99.90
26599;DHT22;14240;51.064;16.612;2023-12-28T05:43:13;8.00;99.90
26599;DHT22;14240;51.064;16.612;2023-12-28T05:45:39;8.00;99.90
26599;DHT22;14240;51.064;16.612;2023-12-28T05:48:05;8.00;99.90
26599;DHT22;14240;51.064;16.612;2023-12-28T05:50:31;8.00;99.90
26599;DHT22;14240;51.064;16.612;2023-12-28T05:52:57;8.00;99.90
26599;DHT22;14240;51.064;16.612;2023-12-28T05:55:22;7.90;99.90
26599;DHT22;14240;51.064;16.612;2023-12-28T05:57:48;7.90;99.90
26599;DHT22;14240;51.064;16.612;2023-12-28T06:00:14;7.90;99.90
26599;DHT22;14240;51.064;16.612;2023-12-28T06:02:41;7.90;99.90
26599;DHT22;14240;51.064;16.612;2023-12-28T06:05:07;7.80;99.90
26599;DHT22;14240;51.064;16.612;2023-12-28T06:07:33;7.80;99.90
26599;DHT22;14240;51.064;16.612;2023-12-28T06:09:59;7.80;99.90
26599;DHT22;14240;51.064;16.612;2023-12-28T06:12:25;7.80;99.90
26599;DHT22;14240;51.064;16.612;2023-12-28T06:14:51;7.80;99.90
26599;DHT22;14240;51.064;16.612;2023-12-28T06:17:17;7.80;99.90
26599;DHT22;14240;51.064;16.612;2023-12-28T06:19:44;7.80;99.90
26599;DHT22;14240;51.064;16.612;2023-12-28T06:22:09;7.80;99.90
26599;DHT22;14240;51.064;16.612;2023-12-28T06:24:39;7.80;99.90
26599;DHT22;14240;51.064;16.612;2023-12-28T06:27:07;7.80;99.90
26599;DHT22;14240;51.064;16.612;2023-12-28T06:29:33;7.80;99.90
26599;DHT22;14240;51.064;16.612;2023-12-28T06:31:59;7.80;99.90
26599;DHT22;14240;51.064;16.612;2023-12-28T06:34:25;7.70;99.90
26599;DHT22;14240;51.064;16.612;2023-12-28T06:36:51;7.80;99.90
26599;DHT22;14240;51.064;16.612;2023-12-28T06:39:17;7.80;99.90
26599;DHT22;14240;51.064;16.612;2023-12-28T06:41:47;7.80;99.90
26599;DHT22;14240;51.064;16.612;2023-12-28T06:44:14;7.80;99.90
26599;DHT22;14240;51.064;16.612;2023-12-28T06:46:40;7.80;99.90
26599;DHT22;14240;51.064;16.612;2023-12-28T06:49:06;7.70;99.90
26599;DHT22;14240;51.064;16.612;2023-12-28T06:51:32;7.80;99.90
26599;DHT22;14240;51.064;16.612;2023-12-28T06:54:00;7.80;99.90
26599;DHT22;14240;51.064;16.612;2023-12-28T06:56:29;7.80;99.90
26599;DHT22;14240;51.064;16.612;2023-12-28T06:58:55;7.80;99.90
26599;DHT22;14240;51.064;16.612;2023-12-28T07:01:20;7.90;99.90
26599;DHT22;14240;51.064;16.612;2023-12-28T07:03:47;7.90;99.90
26599;DHT22;14240;51.064;16.612;2023-12-28T07:06:16;8.00;99.90
26599;DHT22;14240;51.064;16.612;2023-12-28T07:08:41;8.00;99.90
26599;DHT22;14240;51.064;16.612;2023-12-28T07:11:10;8.00;99.90
26599;DHT22;14240;51.064;16.612;2023-12-28T07:13:36;8.10;99.90
26599;DHT22;14240;51.064;16.612;2023-12-28T07:16:02;8.10;99.90
26599;DHT22;14240;51.064;16.612;2023-12-28T07:18:28;8.20;99.90
26599;DHT22;14240;51.064;16.612;2023-12-28T07:20:54;7.40;99.90
26599;DHT22;14240;51.064;16.612;2023-12-28T07:23:20;8.30;99.90
26599;DHT22;14240;51.064;16.612;2023-12-28T07:25:45;8.40;99.90
26599;DHT22;14240;51.064;16.612;2023-12-28T07:28:12;8.40;99.90
26599;DHT22;14240;51.064;16.612;2023-12-28T07:30:37;8.50;99.90
26599;DHT22;14240;51.064;16.612;2023-12-28T07:33:03;8.50;99.90
26599;DHT22;14240;51.064;16.612;2023-12-28T07:35:29;8.60;99.90
26599;DHT22;14240;51.064;16.612;2023-12-28T07:37:55;8.60;99.90
26599;DHT22;14240;51.064;16.612;2023-12-28T07:40:21;8.70;99.90
26599;DHT22;14240;51.064;16.612;2023-12-28T07:42:47;8.80;99.90
26599;DHT22;14240;51.064;16.612;2023-12-28T07:45:13;8.80;99.90
26599;DHT22;14240;51.064;16.612;2023-12-28T07:47:38;8.80;99.90
26599;DHT22;14240;51.064;16.612;2023-12-28T07:50:04;8.90;99.90
26599;DHT22;14240;51.064;16.612;2023-12-28T07:52:30;8.90;99.90
26599;DHT22;14240;51.064;16.612;2023-12-28T07:54:56;9.00;99.90
26599;DHT22;14240;51.064;16.612;2023-12-28T07:57:22;9.00;99.90
26599;DHT22;14240;51.064;16.612;2023-12-28T07:59:48;9.00;99.90
26599;DHT22;14240;51.064;16.612;2023-12-28T08:02:13;9.10;99.90
26599;DHT22;14240;51.064;16.612;2023-12-28T08:04:39;9.10;99.90
26599;DHT22;14240;51.064;16.612;2023-12-28T08:07:05;9.20;99.90
26599;DHT22;14240;51.064;16.612;2023-12-28T08:09:32;9.20;99.90
26599;DHT22;14240;51.064;16.612;2023-12-28T08:11:58;9.20;99.90
26599;DHT22;14240;51.064;16.612;2023-12-28T08:14:24;9.30;99.90
26599;DHT22;14240;51.064;16.612;2023-12-28T08:16:49;9.30;99.90
26599;DHT22;14240;51.064;16.612;2023-12-28T08:19:15;9.30;99.90
26599;DHT22;14240;51.064;16.612;2023-12-28T08:21:40;9.40;99.90
26599;DHT22;14240;51.064;16.612;2023-12-28T08:24:06;9.40;99.90
26599;DHT22;14240;51.064;16.612;2023-12-28T08:26:32;9.50;99.90
26599;DHT22;14240;51.064;16.612;2023-12-28T08:28:58;9.60;99.90
26599;DHT22;14240;51.064;16.612;2023-12-28T08:31:24;9.60;99.90
26599;DHT22;14240;51.064;16.612;2023-12-28T08:33:50;9.70;99.90
26599;DHT22;14240;51.064;16.612;2023-12-28T08:36:16;9.80;99.90
26599;DHT22;14240;51.064;16.612;2023-12-28T08:38:43;9.80;99.90
26599;DHT22;14240;51.064;16.612;2023-12-28T08:41:21;9.80;99.90
26599;DHT22;14240;51.064;16.612;2023-12-28T08:43:47;9.80;99.90
26599;DHT22;14240;51.064;16.612;2023-12-28T08:46:13;9.80;99.90
26599;DHT22;14240;51.064;16.612;2023-12-28T08:48:41;9.80;99.90
26599;DHT22;14240;51.064;16.612;2023-12-28T08:51:10;9.80;99.90
26599;DHT22;14240;51.064;16.612;2023-12-28T08:53:37;9.80;99.90
26599;DHT22;14240;51.064;16.612;2023-12-28T08:56:13;9.80;99.90
26599;DHT22;14240;51.064;16.612;2023-12-28T08:58:38;9.80;99.90
26599;DHT22;14240;51.064;16.612;2023-12-28T09:01:04;9.10;99.90
26599;DHT22;14240;51.064;16.612;2023-12-28T09:03:30;9.80;99.90
26599;DHT22;14240;51.064;16.612;2023-12-28T09:05:56;9.80;99.90
26599;DHT22;14240;51.064;16.612;2023-12-28T09:08:21;9.90;99.90
26599;DHT22;14240;51.064;16.612;2023-12-28T09:10:47;9.90;99.90
26599;DHT22;14240;51.064;16.612;2023-12-28T09:13:16;9.90;99.90
26599;DHT22;14240;51.064;16.612;2023-12-28T09:15:45;9.90;99.90
26599;DHT22;14240;51.064;16.612;2023-12-28T09:18:11;9.90;99.90
26599;DHT22;14240;51.064;16.612;2023-12-28T09:20:37;9.90;99.90
26599;DHT22;14240;51.064;16.612;2023-12-28T09:23:03;9.90;99.90
26599;DHT22;14240;51.064;16.612;2023-12-28T09:25:28;9.90;99.90
26599;DHT22;14240;51.064;16.612;2023-12-28T09:27:54;9.90;99.90
26599;DHT22;14240;51.064;16.612;2023-12-28T09:30:20;9.90;99.90
26599;DHT22;14240;51.064;16.612;2023-12-28T09:32:46;9.80;99.90
26599;DHT22;14240;51.064;16.612;2023-12-28T09:35:11;9.80;99.90
26599;DHT22;14240;51.064;16.612;2023-12-28T09:37:37;9.70;99.90
26599;DHT22;14240;51.064;16.612;2023-12-28T09:40:03;9.70;99.90
26599;DHT22;14240;51.064;16.612;2023-12-28T09:42:40;9.70;99.90
26599;DHT22;14240;51.064;16.612;2023-12-28T09:45:06;9.70;99.90
26599;DHT22;14240;51.064;16.612;2023-12-28T09:47:33;9.70;99.90
26599;DHT22;14240;51.064;16.612;2023-12-28T09:49:59;9.60;99.90
26599;DHT22;14240;51.064;16.612;2023-12-28T09:52:24;9.60;99.90
26599;DHT22;14240;51.064;16.612;2023-12-28T09:54:50;9.60;99.90
26599;DHT22;14240;51.064;16.612;2023-12-28T09:57:17;9.60;99.90
26599;DHT22;14240;51.064;16.612;2023-12-28T09:59:42;9.60;99.90
26599;DHT22;14240;51.064;16.612;2023-12-28T10:02:10;9.60;99.90
26599;DHT22;14240;51.064;16.612;2023-12-28T10:04:37;9.60;99.90
26599;DHT22;14240;51.064;16.612;2023-12-28T10:07:03;9.70;99.90
26599;DHT22;14240;51.064;16.612;2023-12-28T10:09:29;9.60;99.90
26599;DHT22;14240;51.064;16.612;2023-12-28T10:11:56;9.70;99.90
26599;DHT22;14240;51.064;16.612;2023-12-28T10:14:21;9.60;99.90
26599;DHT22;14240;51.064;16.612;2023-12-28T10:16:47;9.60;99.90
26599;DHT22;14240;51.064;16.612;2023-12-28T10:19:13;9.70;99.90
26599;DHT22;14240;51.064;16.612;2023-12-28T10:21:40;9.60;99.90
26599;DHT22;14240;51.064;16.612;2023-12-28T10:24:06;9.70;99.90
26599;DHT22;14240;51.064;16.612;2023-12-28T10:26:31;9.60;99.90
26599;DHT22;14240;51.064;16.612;2023-12-28T10:29:00;9.60;99.90
26599;DHT22;14240;51.064;16.612;2023-12-28T10:31:27;9.60;99.90
26599;DHT22;14240;51.064;16.612;2023-12-28T10:33:53;9.70;99.90
26599;DHT22;14240;51.064;16.612;2023-12-28T10:36:19;9.60;99.90
26599;DHT22;14240;51.064;16.612;2023-12-28T10:38:45;9.70;99.90
26599;DHT22;14240;51.064;16.612;2023-12-28T10:41:13;9.70;99.90
26599;DHT22;14240;51.064;16.612;2023-12-28T10:46:27;9.60;99.90
26599;DHT22;14240;51.064;16.612;2023-12-28T10:48:59;9.60;99.90
26599;DHT22;14240;51.064;16.612;2023-12-28T10:51:25;9.60;99.90
26599;DHT22;14240;51.064;16.612;2023-12-28T10:56:46;9.60;99.90
26599;DHT22;14240;51.064;16.612;2023-12-28T11:02:16;10.20;99.90
26599;DHT22;14240;51.064;16.612;2023-12-28T11:04:49;9.70;99.90
26599;DHT22;14240;51.064;16.612;2023-12-28T11:07:17;9.70;99.90
26599;DHT22;14240;51.064;16.612;2023-12-28T11:09:43;9.80;99.90
26599;DHT22;14240;51.064;16.612;2023-12-28T11:12:09;9.80;99.90
26599;DHT22;14240;51.064;16.612;2023-12-28T11:14:42;9.80;99.90
26599;DHT22;14240;51.064;16.612;2023-12-28T11:17:10;9.90;99.90
26599;DHT22;14240;51.064;16.612;2023-12-28T11:19:37;9.90;99.90
26599;DHT22;14240;51.064;16.612;2023-12-28T11:22:04;10.00;99.90
26599;DHT22;14240;51.064;16.612;2023-12-28T11:24:31;10.00;99.90
26599;DHT22;14240;51.064;16.612;2023-12-28T11:26:57;10.10;99.90
26599;DHT22;14240;51.064;16.612;2023-12-28T11:29:23;10.10;99.90
26599;DHT22;14240;51.064;16.612;2023-12-28T11:31:54;10.20;99.90
26599;DHT22;14240;51.064;16.612;2023-12-28T11:34:28;10.20;99.90
26599;DHT22;14240;51.064;16.612;2023-12-28T11:37:00;10.20;99.90
26599;DHT22;14240;51.064;16.612;2023-12-28T11:39:33;10.30;99.90
26599;DHT22;14240;51.064;16.612;2023-12-28T11:42:02;10.30;99.90
26599;DHT22;14240;51.064;16.612;2023-12-28T11:44:39;10.30;99.90
26599;DHT22;14240;51.064;16.612;2023-12-28T11:47:12;10.30;99.90
26599;DHT22;14240;51.064;16.612;2023-12-28T11:49:38;10.30;99.90
26599;DHT22;14240;51.064;16.612;2023-12-28T11:52:06;10.40;99.90
26599;DHT22;14240;51.064;16.612;2023-12-28T11:54:33;10.40;99.90
26599;DHT22;14240;51.064;16.612;2023-12-28T11:56:59;10.40;99.90
26599;DHT22;14240;51.064;16.612;2023-12-28T11:59:25;10.40;99.90
26599;DHT22;14240;51.064;16.612;2023-12-28T12:01:51;10.40;99.90
26599;DHT22;14240;51.064;16.612;2023-12-28T12:04:21;10.40;99.90
26599;DHT22;14240;51.064;16.612;2023-12-28T12:06:47;10.40;99.90
26599;DHT22;14240;51.064;16.612;2023-12-28T12:09:14;10.50;99.90
26599;DHT22;14240;51.064;16.612;2023-12-28T12:11:40;10.50;99.90
26599;DHT22;14240;51.064;16.612;2023-12-28T12:14:12;10.50;99.90
26599;DHT22;14240;51.064;16.612;2023-12-28T12:16:38;10.50;99.90
26599;DHT22;14240;51.064;16.612;2023-12-28T12:19:07;10.50;99.90
26599;DHT22;14240;51.064;16.612;2023-12-28T12:21:34;10.50;99.90
26599;DHT22;14240;51.064;16.612;2023-12-28T12:24:00;10.50;99.90
26599;DHT22;14240;51.064;16.612;2023-12-28T12:26:29;10.50;99.90
26599;DHT22;14240;51.064;16.612;2023-12-28T12:28:58;10.40;99.90
26599;DHT22;14240;51.064;16.612;2023-12-28T12:31:26;10.50;99.90
26599;DHT22;14240;51.064;16.612;2023-12-28T12:33:51;10.40;99.90
26599;DHT22;14240;51.064;16.612;2023-12-28T12:36:17;10.40;99.90
26599;DHT22;14240;51.064;16.612;2023-12-28T12:38:43;10.40;99.90
26599;DHT22;14240;51.064;16.612;2023-12-28T12:41:12;10.30;99.90
26599;DHT22;14240;51.064;16.612;2023-12-28T12:43:39;10.30;99.90
26599;DHT22;14240;51.064;16.612;2023-12-28T12:46:06;10.30;99.90
26599;DHT22;14240;51.064;16.612;2023-12-28T12:48:32;10.30;99.90
26599;DHT22;14240;51.064;16.612;2023-12-28T12:50:58;10.30;99.90
26599;DHT22;14240;51.064;16.612;2023-12-28T12:53:23;10.20;99.90
26599;DHT22;14240;51.064;16.612;2023-12-28T12:55:54;10.20;99.90
26599;DHT22;14240;51.064;16.612;2023-12-28T12:58:20;10.10;99.90
26599;DHT22;14240;51.064;16.612;2023-12-28T13:00:47;10.10;99.90
26599;DHT22;14240;51.064;16.612;2023-12-28T13:03:13;10.10;99.90
26599;DHT22;14240;51.064;16.612;2023-12-28T13:05:39;10.10;99.90
26599;DHT22;14240;51.064;16.612;2023-12-28T13:08:07;10.10;99.90
26599;DHT22;14240;51.064;16.612;2023-12-28T13:10:32;10.10;99.90
26599;DHT22;14240;51.064;16.612;2023-12-28T13:12:58;10.00;99.90
26599;DHT22;14240;51.064;16.612;2023-12-28T13:15:25;10.00;99.90
26599;DHT22;14240;51.064;16.612;2023-12-28T13:17:51;10.00;99.90
26599;DHT22;14240;51.064;16.612;2023-12-28T13:20:16;9.90;99.90
26599;DHT22;14240;51.064;16.612;2023-12-28T13:22:42;9.90;99.90
26599;DHT22;14240;51.064;16.612;2023-12-28T13:25:08;9.90;99.90
26599;DHT22;14240;51.064;16.612;2023-12-28T13:27:33;9.90;99.90
26599;DHT22;14240;51.064;16.612;2023-12-28T13:29:59;9.90;99.90
26599;DHT22;14240;51.064;16.612;2023-12-28T13:32:25;9.90;99.90
26599;DHT22;14240;51.064;16.612;2023-12-28T13:34:50;9.90;99.90
26599;DHT22;14240;51.064;16.612;2023-12-28T13:37:17;9.90;99.90
26599;DHT22;14240;51.064;16.612;2023-12-28T13:39:43;9.80;99.90
26599;DHT22;14240;51.064;16.612;2023-12-28T13:42:09;9.80;99.90
26599;DHT22;14240;51.064;16.612;2023-12-28T13:44:35;9.90;99.90
26599;DHT22;14240;51.064;16.612;2023-12-28T13:47:01;9.80;99.90
26599;DHT22;14240;51.064;16.612;2023-12-28T13:49:27;9.80;99.90
26599;DHT22;14240;51.064;16.612;2023-12-28T13:51:53;9.80;99.90
26599;DHT22;14240;51.064;16.612;2023-12-28T13:54:19;9.80;99.90
26599;DHT22;14240;51.064;16.612;2023-12-28T13:56:47;10.20;99.90
26599;DHT22;14240;51.064;16.612;2023-12-28T13:59:14;9.70;99.90
26599;DHT22;14240;51.064;16.612;2023-12-28T14:01:40;9.70;99.90
26599;DHT22;14240;51.064;16.612;2023-12-28T14:04:06;9.60;99.90
26599;DHT22;14240;51.064;16.612;2023-12-28T14:06:32;9.60;99.90
26599;DHT22;14240;51.064;16.612;2023-12-28T14:08:58;9.60;99.90
26599;DHT22;14240;51.064;16.612;2023-12-28T14:11:24;9.50;99.90
26599;DHT22;14240;51.064;16.612;2023-12-28T14:13:50;9.50;99.90
26599;DHT22;14240;51.064;16.612;2023-12-28T14:16:16;9.50;99.90
26599;DHT22;14240;51.064;16.612;2023-12-28T14:18:41;9.50;99.90
26599;DHT22;14240;51.064;16.612;2023-12-28T14:21:11;9.40;99.90
26599;DHT22;14240;51.064;16.612;2023-12-28T14:23:39;9.40;99.90
26599;DHT22;14240;51.064;16.612;2023-12-28T14:26:12;9.40;99.90
26599;DHT22;14240;51.064;16.612;2023-12-28T14:28:42;9.40;99.90
26599;DHT22;14240;51.064;16.612;2023-12-28T14:31:10;9.40;99.90
26599;DHT22;14240;51.064;16.612;2023-12-28T14:33:36;9.30;99.90
26599;DHT22;14240;51.064;16.612;2023-12-28T14:36:02;9.30;99.90
26599;DHT22;14240;51.064;16.612;2023-12-28T14:38:29;9.30;99.90
26599;DHT22;14240;51.064;16.612;2023-12-28T14:40:55;9.20;99.90
26599;DHT22;14240;51.064;16.612;2023-12-28T14:43:22;9.20;99.90
26599;DHT22;14240;51.064;16.612;2023-12-28T14:45:48;9.20;99.90
26599;DHT22;14240;51.064;16.612;2023-12-28T14:48:14;9.10;99.90
26599;DHT22;14240;51.064;16.612;2023-12-28T14:50:39;9.10;99.90
26599;DHT22;14240;51.064;16.612;2023-12-28T14:53:05;9.00;99.90
26599;DHT22;14240;51.064;16.612;2023-12-28T14:55:31;9.00;99.90
26599;DHT22;14240;51.064;16.612;2023-12-28T14:57:57;8.90;99.90
26599;DHT22;14240;51.064;16.612;2023-12-28T15:00:24;8.80;99.90
26599;DHT22;14240;51.064;16.612;2023-12-28T15:02:50;8.80;99.90
26599;DHT22;14240;51.064;16.612;2023-12-28T15:05:16;8.70;99.90
26599;DHT22;14240;51.064;16.612;2023-12-28T15:07:42;8.70;99.90
26599;DHT22;14240;51.064;16.612;2023-12-28T15:10:08;8.70;99.90
26599;DHT22;14240;51.064;16.612;2023-12-28T15:12:34;8.60;99.90
26599;DHT22;14240;51.064;16.612;2023-12-28T15:15:00;8.60;99.90
26599;DHT22;14240;51.064;16.612;2023-12-28T15:17:26;8.60;99.90
26599;DHT22;14240;51.064;16.612;2023-12-28T15:19:52;8.60;99.90
26599;DHT22;14240;51.064;16.612;2023-12-28T15:22:18;8.50;99.90
26599;DHT22;14240;51.064;16.612;2023-12-28T15:24:44;8.50;99.90
26599;DHT22;14240;51.064;16.612;2023-12-28T15:27:10;8.50;99.90
26599;DHT22;14240;51.064;16.612;2023-12-28T15:29:36;8.40;99.90
26599;DHT22;14240;51.064;16.612;2023-12-28T15:32:02;8.40;99.90
26599;DHT22;14240;51.064;16.612;2023-12-28T15:34:27;8.40;99.90